sensor_id;sensor_type;location;lat;lon;timestamp;P1;durP1;ratioP1;P2;durP2;ratioP2
15673;SDS011;7937;48.090;16.212;2022-12-31T00:00:40;35.33;;;22.10;;
15673;SDS011;7937;48.090;16.212;2022-12-31T00:03:42;42.00;;;23.33;;
15673;SDS011;7937;48.090;16.212;2022-12-31T00:06:45;39.83;;;22.03;;
15673;SDS011;7937;48.090;16.212;2022-12-31T00:09:48;37.17;;;20.60;;
15673;SDS011;7937;48.090;16.212;2022-12-31T00:12:50;44.43;;;23.77;;
15673;SDS011;7937;48.090;16.212;2022-12-31T00:15:52;38.73;;;22.50;;
15673;SDS011;7937;48.090;16.212;2022-12-31T00:18:55;38.57;;;23.00;;
15673;SDS011;7937;48.090;16.212;2022-12-31T00:22:01;39.53;;;22.13;;
15673;SDS011;7937;48.090;16.212;2022-12-31T00:25:04;35.80;;;20.90;;
15673;SDS011;7937;48.090;16.212;2022-12-31T00:28:06;42.17;;;23.00;;
15673;SDS011;7937;48.090;16.212;2022-12-31T00:31:16;44.67;;;24.97;;
15673;SDS011;7937;48.090;16.212;2022-12-31T00:34:20;42.17;;;23.97;;
15673;SDS011;7937;48.090;16.212;2022-12-31T00:37:22;35.37;;;20.43;;
15673;SDS011;7937;48.090;16.212;2022-12-31T00:40:24;33.67;;;18.93;;
15673;SDS011;7937;48.090;16.212;2022-12-31T00:43:26;34.07;;;20.83;;
15673;SDS011;7937;48.090;16.212;2022-12-31T00:46:28;35.10;;;20.13;;
15673;SDS011;7937;48.090;16.212;2022-12-31T00:49:32;29.20;;;18.27;;
15673;SDS011;7937;48.090;16.212;2022-12-31T00:52:34;30.53;;;19.17;;
15673;SDS011;7937;48.090;16.212;2022-12-31T00:55:36;30.27;;;18.67;;
15673;SDS011;7937;48.090;16.212;2022-12-31T00:58:39;32.17;;;18.17;;
15673;SDS011;7937;48.090;16.212;2022-12-31T01:01:41;27.30;;;16.27;;
15673;SDS011;7937;48.090;16.212;2022-12-31T01:04:44;27.40;;;16.40;;
15673;SDS011;7937;48.090;16.212;2022-12-31T01:07:46;28.17;;;18.03;;
15673;SDS011;7937;48.090;16.212;2022-12-31T01:10:48;33.83;;;19.77;;
15673;SDS011;7937;48.090;16.212;2022-12-31T01:14:10;30.47;;;18.63;;
15673;SDS011;7937;48.090;16.212;2022-12-31T01:17:17;28.57;;;19.23;;
15673;SDS011;7937;48.090;16.212;2022-12-31T01:20:20;39.07;;;22.83;;
15673;SDS011;7937;48.090;16.212;2022-12-31T01:23:22;36.90;;;21.10;;
15673;SDS011;7937;48.090;16.212;2022-12-31T01:26:24;29.33;;;18.53;;
15673;SDS011;7937;48.090;16.212;2022-12-31T01:29:27;33.03;;;19.90;;
15673;SDS011;7937;48.090;16.212;2022-12-31T01:32:30;32.27;;;19.00;;
15673;SDS011;7937;48.090;16.212;2022-12-31T01:35:35;29.70;;;17.70;;
15673;SDS011;7937;48.090;16.212;2022-12-31T01:38:37;37.67;;;21.47;;
15673;SDS011;7937;48.090;16.212;2022-12-31T01:41:41;36.13;;;20.57;;
15673;SDS011;7937;48.090;16.212;2022-12-31T01:44:48;30.53;;;18.23;;
15673;SDS011;7937;48.090;16.212;2022-12-31T01:47:56;35.27;;;20.47;;
15673;SDS011;7937;48.090;16.212;2022-12-31T01:51:00;35.17;;;21.13;;
15673;SDS011;7937;48.090;16.212;2022-12-31T01:54:03;30.93;;;19.63;;
15673;SDS011;7937;48.090;16.212;2022-12-31T01:57:09;36.97;;;20.40;;
15673;SDS011;7937;48.090;16.212;2022-12-31T02:00:13;35.87;;;20.40;;
15673;SDS011;7937;48.090;16.212;2022-12-31T02:03:17;39.70;;;21.27;;
15673;SDS011;7937;48.090;16.212;2022-12-31T02:06:30;32.67;;;19.50;;
15673;SDS011;7937;48.090;16.212;2022-12-31T02:09:41;29.90;;;18.30;;
15673;SDS011;7937;48.090;16.212;2022-12-31T02:12:43;35.37;;;21.47;;
15673;SDS011;7937;48.090;16.212;2022-12-31T02:16:04;29.90;;;18.30;;
15673;SDS011;7937;48.090;16.212;2022-12-31T02:22:51;32.07;;;19.40;;
15673;SDS011;7937;48.090;16.212;2022-12-31T02:33:15;30.90;;;18.43;;
15673;SDS011;7937;48.090;16.212;2022-12-31T02:36:22;29.27;;;19.13;;
15673;SDS011;7937;48.090;16.212;2022-12-31T02:39:28;30.73;;;18.73;;
15673;SDS011;7937;48.090;16.212;2022-12-31T02:42:31;26.37;;;17.13;;
15673;SDS011;7937;48.090;16.212;2022-12-31T02:45:37;30.30;;;18.90;;
15673;SDS011;7937;48.090;16.212;2022-12-31T02:48:46;31.37;;;19.63;;
15673;SDS011;7937;48.090;16.212;2022-12-31T02:51:56;31.40;;;18.70;;
15673;SDS011;7937;48.090;16.212;2022-12-31T02:58:29;31.60;;;20.00;;
15673;SDS011;7937;48.090;16.212;2022-12-31T03:01:59;28.10;;;17.53;;
15673;SDS011;7937;48.090;16.212;2022-12-31T03:05:16;28.57;;;18.77;;
15673;SDS011;7937;48.090;16.212;2022-12-31T03:08:24;29.87;;;18.03;;
15673;SDS011;7937;48.090;16.212;2022-12-31T03:11:27;27.90;;;17.80;;
15673;SDS011;7937;48.090;16.212;2022-12-31T03:14:48;30.93;;;18.43;;
15673;SDS011;7937;48.090;16.212;2022-12-31T03:21:12;27.87;;;18.23;;
15673;SDS011;7937;48.090;16.212;2022-12-31T03:24:32;28.97;;;19.53;;
15673;SDS011;7937;48.090;16.212;2022-12-31T03:27:53;32.70;;;18.93;;
15673;SDS011;7937;48.090;16.212;2022-12-31T03:30:56;29.27;;;19.07;;
15673;SDS011;7937;48.090;16.212;2022-12-31T03:34:00;29.73;;;18.90;;
15673;SDS011;7937;48.090;16.212;2022-12-31T03:37:02;30.97;;;19.43;;
15673;SDS011;7937;48.090;16.212;2022-12-31T03:40:05;23.60;;;15.57;;
15673;SDS011;7937;48.090;16.212;2022-12-31T03:43:08;21.30;;;13.87;;
15673;SDS011;7937;48.090;16.212;2022-12-31T03:46:10;30.07;;;18.53;;
15673;SDS011;7937;48.090;16.212;2022-12-31T03:49:13;24.77;;;16.70;;
15673;SDS011;7937;48.090;16.212;2022-12-31T03:52:15;25.83;;;16.60;;
15673;SDS011;7937;48.090;16.212;2022-12-31T03:55:17;24.50;;;16.23;;
15673;SDS011;7937;48.090;16.212;2022-12-31T03:58:20;24.87;;;16.67;;
15673;SDS011;7937;48.090;16.212;2022-12-31T04:01:23;25.57;;;16.93;;
15673;SDS011;7937;48.090;16.212;2022-12-31T04:04:26;26.63;;;16.63;;
15673;SDS011;7937;48.090;16.212;2022-12-31T04:07:28;24.20;;;14.90;;
15673;SDS011;7937;48.090;16.212;2022-12-31T04:10:30;27.20;;;17.33;;
15673;SDS011;7937;48.090;16.212;2022-12-31T04:13:32;31.03;;;18.47;;
15673;SDS011;7937;48.090;16.212;2022-12-31T04:16:34;30.97;;;18.77;;
15673;SDS011;7937;48.090;16.212;2022-12-31T04:19:36;28.80;;;16.97;;
15673;SDS011;7937;48.090;16.212;2022-12-31T04:22:38;24.93;;;16.33;;
15673;SDS011;7937;48.090;16.212;2022-12-31T04:25:40;27.27;;;17.10;;
15673;SDS011;7937;48.090;16.212;2022-12-31T04:28:44;30.40;;;18.53;;
15673;SDS011;7937;48.090;16.212;2022-12-31T04:31:46;25.60;;;16.80;;
15673;SDS011;7937;48.090;16.212;2022-12-31T04:34:49;24.73;;;16.57;;
15673;SDS011;7937;48.090;16.212;2022-12-31T04:37:51;26.03;;;14.37;;
15673;SDS011;7937;48.090;16.212;2022-12-31T04:40:53;24.00;;;15.53;;
15673;SDS011;7937;48.090;16.212;2022-12-31T04:44:14;25.53;;;16.23;;
15673;SDS011;7937;48.090;16.212;2022-12-31T04:47:16;26.33;;;16.47;;
15673;SDS011;7937;48.090;16.212;2022-12-31T04:50:24;19.90;;;14.30;;
15673;SDS011;7937;48.090;16.212;2022-12-31T04:53:26;21.73;;;15.43;;
15673;SDS011;7937;48.090;16.212;2022-12-31T04:56:29;22.07;;;15.10;;
15673;SDS011;7937;48.090;16.212;2022-12-31T04:59:31;21.23;;;14.87;;
15673;SDS011;7937;48.090;16.212;2022-12-31T05:02:33;23.57;;;15.77;;
15673;SDS011;7937;48.090;16.212;2022-12-31T05:05:38;21.37;;;13.77;;
15673;SDS011;7937;48.090;16.212;2022-12-31T05:08:43;24.30;;;15.90;;
15673;SDS011;7937;48.090;16.212;2022-12-31T05:11:45;27.10;;;16.07;;
15673;SDS011;7937;48.090;16.212;2022-12-31T05:14:47;27.30;;;16.77;;
15673;SDS011;7937;48.090;16.212;2022-12-31T05:17:49;26.17;;;16.70;;
15673;SDS011;7937;48.090;16.212;2022-12-31T05:20:51;23.73;;;15.30;;
15673;SDS011;7937;48.090;16.212;2022-12-31T05:23:53;20.50;;;13.43;;
15673;SDS011;7937;48.090;16.212;2022-12-31T05:26:56;22.20;;;14.80;;
15673;SDS011;7937;48.090;16.212;2022-12-31T05:29:58;20.17;;;13.30;;
15673;SDS011;7937;48.090;16.212;2022-12-31T05:33:00;19.50;;;13.53;;
15673;SDS011;7937;48.090;16.212;2022-12-31T05:36:02;20.23;;;13.17;;
15673;SDS011;7937;48.090;16.212;2022-12-31T05:39:05;22.03;;;12.43;;
15673;SDS011;7937;48.090;16.212;2022-12-31T05:42:07;18.50;;;12.63;;
15673;SDS011;7937;48.090;16.212;2022-12-31T05:45:09;17.53;;;11.63;;
15673;SDS011;7937;48.090;16.212;2022-12-31T05:48:14;18.20;;;10.50;;
15673;SDS011;7937;48.090;16.212;2022-12-31T05:51:16;14.80;;;10.57;;
15673;SDS011;7937;48.090;16.212;2022-12-31T05:54:18;14.00;;;9.90;;
15673;SDS011;7937;48.090;16.212;2022-12-31T05:57:20;9.33;;;7.93;;
15673;SDS011;7937;48.090;16.212;2022-12-31T06:00:22;9.67;;;7.00;;
15673;SDS011;7937;48.090;16.212;2022-12-31T06:03:24;11.53;;;6.37;;
15673;SDS011;7937;48.090;16.212;2022-12-31T06:06:26;7.90;;;5.60;;
15673;SDS011;7937;48.090;16.212;2022-12-31T06:09:28;7.27;;;4.67;;
15673;SDS011;7937;48.090;16.212;2022-12-31T06:12:30;5.63;;;4.50;;
15673;SDS011;7937;48.090;16.212;2022-12-31T06:15:35;7.07;;;4.17;;
15673;SDS011;7937;48.090;16.212;2022-12-31T06:18:39;3.90;;;3.20;;
15673;SDS011;7937;48.090;16.212;2022-12-31T06:21:41;3.63;;;3.07;;
15673;SDS011;7937;48.090;16.212;2022-12-31T06:24:43;3.23;;;2.90;;
15673;SDS011;7937;48.090;16.212;2022-12-31T06:27:45;3.07;;;2.50;;
15673;SDS011;7937;48.090;16.212;2022-12-31T06:30:47;2.97;;;2.67;;
15673;SDS011;7937;48.090;16.212;2022-12-31T06:33:51;2.77;;;2.20;;
15673;SDS011;7937;48.090;16.212;2022-12-31T06:36:53;2.53;;;2.03;;
15673;SDS011;7937;48.090;16.212;2022-12-31T06:39:55;1.57;;;1.47;;
15673;SDS011;7937;48.090;16.212;2022-12-31T06:42:57;2.53;;;1.63;;
15673;SDS011;7937;48.090;16.212;2022-12-31T06:46:04;3.47;;;2.03;;
15673;SDS011;7937;48.090;16.212;2022-12-31T06:49:08;2.07;;;1.77;;
15673;SDS011;7937;48.090;16.212;2022-12-31T06:52:10;2.80;;;1.60;;
15673;SDS011;7937;48.090;16.212;2022-12-31T06:55:12;2.07;;;1.47;;
15673;SDS011;7937;48.090;16.212;2022-12-31T06:58:15;1.77;;;1.20;;
15673;SDS011;7937;48.090;16.212;2022-12-31T07:11:40;3.93;;;2.07;;
15673;SDS011;7937;48.090;16.212;2022-12-31T07:15:15;2.63;;;1.87;;
15673;SDS011;7937;48.090;16.212;2022-12-31T07:21:55;3.40;;;2.27;;
15673;SDS011;7937;48.090;16.212;2022-12-31T07:24:59;3.97;;;2.30;;
15673;SDS011;7937;48.090;16.212;2022-12-31T07:28:08;5.30;;;3.30;;
15673;SDS011;7937;48.090;16.212;2022-12-31T07:31:26;5.07;;;3.73;;
15673;SDS011;7937;48.090;16.212;2022-12-31T07:38:48;11.60;;;8.13;;
15673;SDS011;7937;48.090;16.212;2022-12-31T07:42:08;50.20;;;15.20;;
15673;SDS011;7937;48.090;16.212;2022-12-31T07:45:35;15.17;;;10.03;;
15673;SDS011;7937;48.090;16.212;2022-12-31T07:49:08;15.77;;;9.20;;
15673;SDS011;7937;48.090;16.212;2022-12-31T07:52:14;13.97;;;7.97;;
15673;SDS011;7937;48.090;16.212;2022-12-31T07:55:16;8.60;;;6.00;;
15673;SDS011;7937;48.090;16.212;2022-12-31T07:58:24;7.97;;;5.00;;
15673;SDS011;7937;48.090;16.212;2022-12-31T08:05:03;5.63;;;4.13;;
15673;SDS011;7937;48.090;16.212;2022-12-31T08:08:20;8.47;;;4.17;;
15673;SDS011;7937;48.090;16.212;2022-12-31T08:11:48;3.43;;;2.67;;
15673;SDS011;7937;48.090;16.212;2022-12-31T08:15:00;3.57;;;2.20;;
15673;SDS011;7937;48.090;16.212;2022-12-31T08:18:02;5.33;;;2.90;;
15673;SDS011;7937;48.090;16.212;2022-12-31T08:28:15;1.90;;;1.40;;
15673;SDS011;7937;48.090;16.212;2022-12-31T08:41:44;3.67;;;2.50;;
15673;SDS011;7937;48.090;16.212;2022-12-31T08:44:51;3.33;;;2.20;;
15673;SDS011;7937;48.090;16.212;2022-12-31T08:48:11;2.37;;;1.73;;
15673;SDS011;7937;48.090;16.212;2022-12-31T08:51:25;2.67;;;2.40;;
15673;SDS011;7937;48.090;16.212;2022-12-31T08:54:28;2.43;;;2.10;;
15673;SDS011;7937;48.090;16.212;2022-12-31T09:00:43;2.47;;;2.00;;
15673;SDS011;7937;48.090;16.212;2022-12-31T09:07:36;2.63;;;2.40;;
15673;SDS011;7937;48.090;16.212;2022-12-31T09:14:06;2.60;;;2.20;;
15673;SDS011;7937;48.090;16.212;2022-12-31T09:20:44;3.43;;;2.50;;
15673;SDS011;7937;48.090;16.212;2022-12-31T09:23:46;3.20;;;2.33;;
15673;SDS011;7937;48.090;16.212;2022-12-31T09:30:17;1.87;;;1.67;;
15673;SDS011;7937;48.090;16.212;2022-12-31T09:36:45;2.97;;;1.07;;
15673;SDS011;7937;48.090;16.212;2022-12-31T09:39:51;1.13;;;0.80;;
15673;SDS011;7937;48.090;16.212;2022-12-31T10:36:19;33.07;;;22.97;;
15673;SDS011;7937;48.090;16.212;2022-12-31T10:39:30;29.60;;;20.90;;
15673;SDS011;7937;48.090;16.212;2022-12-31T10:50:03;3.67;;;2.90;;
15673;SDS011;7937;48.090;16.212;2022-12-31T11:00:19;5.90;;;2.27;;
15673;SDS011;7937;48.090;16.212;2022-12-31T11:10:39;2.23;;;2.00;;
15673;SDS011;7937;48.090;16.212;2022-12-31T11:31:22;34.23;;;26.77;;
15673;SDS011;7937;48.090;16.212;2022-12-31T11:44:45;26.97;;;23.10;;
15673;SDS011;7937;48.090;16.212;2022-12-31T11:48:22;31.57;;;24.23;;
15673;SDS011;7937;48.090;16.212;2022-12-31T11:55:34;29.93;;;23.73;;
15673;SDS011;7937;48.090;16.212;2022-12-31T11:58:48;27.17;;;22.90;;
15673;SDS011;7937;48.090;16.212;2022-12-31T12:05:21;22.10;;;18.83;;
15673;SDS011;7937;48.090;16.212;2022-12-31T12:08:24;23.10;;;19.40;;
15673;SDS011;7937;48.090;16.212;2022-12-31T12:11:31;22.43;;;19.37;;
15673;SDS011;7937;48.090;16.212;2022-12-31T12:14:37;23.30;;;19.63;;
15673;SDS011;7937;48.090;16.212;2022-12-31T12:17:40;22.80;;;19.63;;
15673;SDS011;7937;48.090;16.212;2022-12-31T12:20:43;21.83;;;18.43;;
15673;SDS011;7937;48.090;16.212;2022-12-31T12:23:58;22.03;;;18.37;;
15673;SDS011;7937;48.090;16.212;2022-12-31T12:27:04;21.47;;;17.83;;
15673;SDS011;7937;48.090;16.212;2022-12-31T12:30:23;21.43;;;17.70;;
15673;SDS011;7937;48.090;16.212;2022-12-31T12:33:29;18.83;;;15.80;;
15673;SDS011;7937;48.090;16.212;2022-12-31T12:36:45;18.37;;;15.10;;
15673;SDS011;7937;48.090;16.212;2022-12-31T12:39:54;18.97;;;15.63;;
15673;SDS011;7937;48.090;16.212;2022-12-31T12:43:04;17.30;;;15.27;;
15673;SDS011;7937;48.090;16.212;2022-12-31T12:46:17;21.57;;;18.57;;
15673;SDS011;7937;48.090;16.212;2022-12-31T12:49:38;26.27;;;20.60;;
15673;SDS011;7937;48.090;16.212;2022-12-31T12:56:10;22.37;;;18.70;;
15673;SDS011;7937;48.090;16.212;2022-12-31T12:59:32;24.17;;;20.07;;
15673;SDS011;7937;48.090;16.212;2022-12-31T13:09:32;20.03;;;17.60;;
15673;SDS011;7937;48.090;16.212;2022-12-31T13:13:17;25.47;;;19.13;;
15673;SDS011;7937;48.090;16.212;2022-12-31T13:19:42;19.87;;;17.70;;
15673;SDS011;7937;48.090;16.212;2022-12-31T13:22:55;22.60;;;17.77;;
15673;SDS011;7937;48.090;16.212;2022-12-31T13:29:28;19.90;;;14.30;;
15673;SDS011;7937;48.090;16.212;2022-12-31T13:32:37;16.97;;;13.17;;
15673;SDS011;7937;48.090;16.212;2022-12-31T13:39:13;19.30;;;15.03;;
15673;SDS011;7937;48.090;16.212;2022-12-31T13:42:27;24.00;;;17.60;;
15673;SDS011;7937;48.090;16.212;2022-12-31T13:45:38;22.57;;;19.17;;
15673;SDS011;7937;48.090;16.212;2022-12-31T13:48:51;24.40;;;19.97;;
15673;SDS011;7937;48.090;16.212;2022-12-31T13:51:59;21.57;;;18.93;;
15673;SDS011;7937;48.090;16.212;2022-12-31T13:55:24;24.77;;;19.20;;
15673;SDS011;7937;48.090;16.212;2022-12-31T13:58:36;21.07;;;18.10;;
15673;SDS011;7937;48.090;16.212;2022-12-31T14:05:12;21.33;;;17.43;;
15673;SDS011;7937;48.090;16.212;2022-12-31T14:08:19;23.23;;;18.77;;
15673;SDS011;7937;48.090;16.212;2022-12-31T14:11:40;23.73;;;19.13;;
15673;SDS011;7937;48.090;16.212;2022-12-31T14:25:00;24.40;;;19.60;;
15673;SDS011;7937;48.090;16.212;2022-12-31T14:28:06;27.03;;;20.90;;
15673;SDS011;7937;48.090;16.212;2022-12-31T14:34:45;29.40;;;22.53;;
15673;SDS011;7937;48.090;16.212;2022-12-31T14:38:09;23.97;;;19.33;;
15673;SDS011;7937;48.090;16.212;2022-12-31T14:52:24;28.90;;;21.17;;
15673;SDS011;7937;48.090;16.212;2022-12-31T14:55:32;28.83;;;22.33;;
15673;SDS011;7937;48.090;16.212;2022-12-31T14:58:41;25.00;;;20.47;;
15673;SDS011;7937;48.090;16.212;2022-12-31T15:01:44;30.53;;;24.23;;
15673;SDS011;7937;48.090;16.212;2022-12-31T15:04:46;28.20;;;22.40;;
15673;SDS011;7937;48.090;16.212;2022-12-31T15:21:10;15.43;;;11.80;;
15673;SDS011;7937;48.090;16.212;2022-12-31T15:24:31;18.50;;;12.10;;
15673;SDS011;7937;48.090;16.212;2022-12-31T15:30:43;7.53;;;6.50;;
15673;SDS011;7937;48.090;16.212;2022-12-31T15:37:30;5.70;;;2.87;;
15673;SDS011;7937;48.090;16.212;2022-12-31T15:40:44;3.27;;;1.80;;
15673;SDS011;7937;48.090;16.212;2022-12-31T15:43:51;2.23;;;2.03;;
15673;SDS011;7937;48.090;16.212;2022-12-31T15:47:03;2.80;;;2.20;;
15673;SDS011;7937;48.090;16.212;2022-12-31T15:50:30;2.10;;;1.80;;
15673;SDS011;7937;48.090;16.212;2022-12-31T15:53:38;4.37;;;1.90;;
15673;SDS011;7937;48.090;16.212;2022-12-31T15:56:43;2.90;;;1.63;;
15673;SDS011;7937;48.090;16.212;2022-12-31T15:59:47;3.97;;;1.27;;
15673;SDS011;7937;48.090;16.212;2022-12-31T16:02:50;2.60;;;2.40;;
15673;SDS011;7937;48.090;16.212;2022-12-31T16:05:59;3.80;;;2.10;;
15673;SDS011;7937;48.090;16.212;2022-12-31T16:09:08;2.60;;;1.90;;
15673;SDS011;7937;48.090;16.212;2022-12-31T16:12:21;5.83;;;2.13;;
15673;SDS011;7937;48.090;16.212;2022-12-31T16:15:33;3.57;;;1.80;;
15673;SDS011;7937;48.090;16.212;2022-12-31T16:18:39;3.13;;;2.13;;
15673;SDS011;7937;48.090;16.212;2022-12-31T16:21:44;4.77;;;2.50;;
15673;SDS011;7937;48.090;16.212;2022-12-31T16:24:51;4.63;;;2.10;;
15673;SDS011;7937;48.090;16.212;2022-12-31T16:28:18;3.33;;;2.30;;
15673;SDS011;7937;48.090;16.212;2022-12-31T16:31:23;4.83;;;2.17;;
15673;SDS011;7937;48.090;16.212;2022-12-31T16:34:28;2.33;;;1.93;;
15673;SDS011;7937;48.090;16.212;2022-12-31T16:37:37;2.80;;;1.73;;
15673;SDS011;7937;48.090;16.212;2022-12-31T16:40:40;2.30;;;1.73;;
15673;SDS011;7937;48.090;16.212;2022-12-31T16:43:48;4.47;;;2.33;;
15673;SDS011;7937;48.090;16.212;2022-12-31T16:46:51;4.10;;;1.70;;
15673;SDS011;7937;48.090;16.212;2022-12-31T16:49:59;5.20;;;2.10;;
15673;SDS011;7937;48.090;16.212;2022-12-31T16:53:06;3.60;;;1.67;;
15673;SDS011;7937;48.090;16.212;2022-12-31T16:56:08;7.70;;;2.23;;
15673;SDS011;7937;48.090;16.212;2022-12-31T16:59:20;1.83;;;1.60;;
15673;SDS011;7937;48.090;16.212;2022-12-31T17:02:26;6.40;;;1.80;;
15673;SDS011;7937;48.090;16.212;2022-12-31T17:09:11;4.93;;;1.30;;
15673;SDS011;7937;48.090;16.212;2022-12-31T17:12:31;1.57;;;1.43;;
15673;SDS011;7937;48.090;16.212;2022-12-31T17:15:56;4.17;;;2.00;;
15673;SDS011;7937;48.090;16.212;2022-12-31T17:18:59;2.00;;;1.80;;
15673;SDS011;7937;48.090;16.212;2022-12-31T17:22:02;2.33;;;1.80;;
15673;SDS011;7937;48.090;16.212;2022-12-31T17:28:28;4.83;;;2.70;;
15673;SDS011;7937;48.090;16.212;2022-12-31T17:31:39;4.90;;;2.60;;
15673;SDS011;7937;48.090;16.212;2022-12-31T17:34:57;3.07;;;2.77;;
15673;SDS011;7937;48.090;16.212;2022-12-31T17:41:24;4.20;;;2.10;;
15673;SDS011;7937;48.090;16.212;2022-12-31T17:44:27;3.80;;;2.73;;
15673;SDS011;7937;48.090;16.212;2022-12-31T17:47:34;4.30;;;2.90;;
15673;SDS011;7937;48.090;16.212;2022-12-31T17:50:51;4.10;;;2.30;;
15673;SDS011;7937;48.090;16.212;2022-12-31T17:53:54;3.50;;;2.60;;
15673;SDS011;7937;48.090;16.212;2022-12-31T17:56:57;2.90;;;2.17;;
15673;SDS011;7937;48.090;16.212;2022-12-31T17:59:59;5.20;;;1.90;;
15673;SDS011;7937;48.090;16.212;2022-12-31T18:03:12;2.60;;;1.70;;
15673;SDS011;7937;48.090;16.212;2022-12-31T18:06:14;2.13;;;1.43;;
15673;SDS011;7937;48.090;16.212;2022-12-31T18:09:17;1.53;;;1.30;;
15673;SDS011;7937;48.090;16.212;2022-12-31T18:12:20;5.00;;;1.40;;
15673;SDS011;7937;48.090;16.212;2022-12-31T18:15:23;1.40;;;1.30;;
15673;SDS011;7937;48.090;16.212;2022-12-31T18:18:26;1.50;;;1.30;;
15673;SDS011;7937;48.090;16.212;2022-12-31T18:21:30;1.70;;;1.43;;
15673;SDS011;7937;48.090;16.212;2022-12-31T18:24:35;2.53;;;1.20;;
15673;SDS011;7937;48.090;16.212;2022-12-31T18:27:37;2.70;;;1.20;;
15673;SDS011;7937;48.090;16.212;2022-12-31T18:30:41;2.07;;;1.30;;
15673;SDS011;7937;48.090;16.212;2022-12-31T18:33:44;2.30;;;1.20;;
15673;SDS011;7937;48.090;16.212;2022-12-31T18:36:50;1.30;;;1.03;;
15673;SDS011;7937;48.090;16.212;2022-12-31T18:39:52;2.17;;;1.10;;
15673;SDS011;7937;48.090;16.212;2022-12-31T18:42:54;1.87;;;1.30;;
15673;SDS011;7937;48.090;16.212;2022-12-31T18:46:05;1.23;;;0.97;;
15673;SDS011;7937;48.090;16.212;2022-12-31T18:49:10;2.40;;;1.23;;
15673;SDS011;7937;48.090;16.212;2022-12-31T18:52:16;2.97;;;0.90;;
15673;SDS011;7937;48.090;16.212;2022-12-31T18:55:23;4.97;;;1.17;;
15673;SDS011;7937;48.090;16.212;2022-12-31T18:58:33;1.80;;;1.40;;
15673;SDS011;7937;48.090;16.212;2022-12-31T19:01:39;2.43;;;1.47;;
15673;SDS011;7937;48.090;16.212;2022-12-31T19:04:41;3.27;;;1.83;;
15673;SDS011;7937;48.090;16.212;2022-12-31T19:07:43;3.67;;;1.30;;
15673;SDS011;7937;48.090;16.212;2022-12-31T19:10:46;4.43;;;1.40;;
15673;SDS011;7937;48.090;16.212;2022-12-31T19:13:50;1.87;;;1.20;;
15673;SDS011;7937;48.090;16.212;2022-12-31T19:16:52;2.40;;;1.10;;
15673;SDS011;7937;48.090;16.212;2022-12-31T19:19:55;1.90;;;1.37;;
15673;SDS011;7937;48.090;16.212;2022-12-31T19:23:02;2.73;;;0.93;;
15673;SDS011;7937;48.090;16.212;2022-12-31T19:26:04;4.57;;;1.00;;
15673;SDS011;7937;48.090;16.212;2022-12-31T19:29:16;3.50;;;1.10;;
15673;SDS011;7937;48.090;16.212;2022-12-31T19:32:20;1.17;;;1.07;;
15673;SDS011;7937;48.090;16.212;2022-12-31T19:35:22;0.80;;;0.80;;
15673;SDS011;7937;48.090;16.212;2022-12-31T19:38:25;1.50;;;1.00;;
15673;SDS011;7937;48.090;16.212;2022-12-31T19:41:29;3.33;;;1.00;;
15673;SDS011;7937;48.090;16.212;2022-12-31T19:44:31;2.20;;;0.90;;
15673;SDS011;7937;48.090;16.212;2022-12-31T19:47:34;2.13;;;1.10;;
15673;SDS011;7937;48.090;16.212;2022-12-31T19:50:36;3.27;;;1.30;;
15673;SDS011;7937;48.090;16.212;2022-12-31T19:53:38;5.07;;;1.27;;
15673;SDS011;7937;48.090;16.212;2022-12-31T19:56:40;5.33;;;1.30;;
15673;SDS011;7937;48.090;16.212;2022-12-31T19:59:42;5.67;;;1.60;;
15673;SDS011;7937;48.090;16.212;2022-12-31T20:02:45;4.27;;;1.43;;
15673;SDS011;7937;48.090;16.212;2022-12-31T20:05:48;3.57;;;1.80;;
15673;SDS011;7937;48.090;16.212;2022-12-31T20:08:51;1.90;;;1.70;;
15673;SDS011;7937;48.090;16.212;2022-12-31T20:11:53;2.00;;;1.63;;
15673;SDS011;7937;48.090;16.212;2022-12-31T20:14:55;1.30;;;1.20;;
15673;SDS011;7937;48.090;16.212;2022-12-31T20:17:57;5.43;;;1.50;;
15673;SDS011;7937;48.090;16.212;2022-12-31T20:20:59;1.50;;;1.10;;
15673;SDS011;7937;48.090;16.212;2022-12-31T20:24:01;8.50;;;1.50;;
15673;SDS011;7937;48.090;16.212;2022-12-31T20:27:04;4.40;;;1.17;;
15673;SDS011;7937;48.090;16.212;2022-12-31T20:30:08;3.63;;;1.73;;
15673;SDS011;7937;48.090;16.212;2022-12-31T20:33:11;4.37;;;1.40;;
15673;SDS011;7937;48.090;16.212;2022-12-31T20:36:19;3.63;;;1.30;;
15673;SDS011;7937;48.090;16.212;2022-12-31T20:39:22;2.20;;;1.30;;
15673;SDS011;7937;48.090;16.212;2022-12-31T20:42:24;2.60;;;1.20;;
15673;SDS011;7937;48.090;16.212;2022-12-31T20:45:26;3.03;;;1.40;;
15673;SDS011;7937;48.090;16.212;2022-12-31T20:48:28;2.93;;;1.13;;
15673;SDS011;7937;48.090;16.212;2022-12-31T20:51:33;2.57;;;0.80;;
15673;SDS011;7937;48.090;16.212;2022-12-31T20:54:35;2.57;;;0.90;;
15673;SDS011;7937;48.090;16.212;2022-12-31T20:57:38;6.00;;;1.20;;
15673;SDS011;7937;48.090;16.212;2022-12-31T21:00:45;2.07;;;0.83;;
15673;SDS011;7937;48.090;16.212;2022-12-31T21:03:51;1.60;;;1.03;;
15673;SDS011;7937;48.090;16.212;2022-12-31T21:07:09;2.50;;;1.60;;
15673;SDS011;7937;48.090;16.212;2022-12-31T21:10:12;2.47;;;0.80;;
15673;SDS011;7937;48.090;16.212;2022-12-31T21:13:15;2.90;;;1.10;;
15673;SDS011;7937;48.090;16.212;2022-12-31T21:16:23;1.80;;;0.70;;
15673;SDS011;7937;48.090;16.212;2022-12-31T21:19:26;3.37;;;0.90;;
15673;SDS011;7937;48.090;16.212;2022-12-31T21:22:28;0.83;;;0.60;;
15673;SDS011;7937;48.090;16.212;2022-12-31T21:25:31;2.40;;;0.73;;
15673;SDS011;7937;48.090;16.212;2022-12-31T21:28:33;2.60;;;0.60;;
15673;SDS011;7937;48.090;16.212;2022-12-31T21:31:35;2.00;;;0.70;;
15673;SDS011;7937;48.090;16.212;2022-12-31T21:34:37;1.70;;;0.60;;
15673;SDS011;7937;48.090;16.212;2022-12-31T21:37:39;3.40;;;0.90;;
15673;SDS011;7937;48.090;16.212;2022-12-31T21:41:00;1.60;;;0.60;;
15673;SDS011;7937;48.090;16.212;2022-12-31T21:44:03;0.90;;;0.50;;
15673;SDS011;7937;48.090;16.212;2022-12-31T21:47:06;3.30;;;0.37;;
15673;SDS011;7937;48.090;16.212;2022-12-31T21:50:38;2.13;;;0.50;;
15673;SDS011;7937;48.090;16.212;2022-12-31T21:53:40;1.00;;;0.40;;
15673;SDS011;7937;48.090;16.212;2022-12-31T21:56:42;0.90;;;0.77;;
15673;SDS011;7937;48.090;16.212;2022-12-31T21:59:45;1.90;;;0.50;;
15673;SDS011;7937;48.090;16.212;2022-12-31T22:03:25;2.27;;;0.50;;
15673;SDS011;7937;48.090;16.212;2022-12-31T22:06:29;2.10;;;0.60;;
15673;SDS011;7937;48.090;16.212;2022-12-31T22:09:32;0.40;;;0.40;;
15673;SDS011;7937;48.090;16.212;2022-12-31T22:12:34;0.47;;;0.40;;
15673;SDS011;7937;48.090;16.212;2022-12-31T22:15:37;2.17;;;0.40;;
15673;SDS011;7937;48.090;16.212;2022-12-31T22:18:42;0.57;;;0.40;;
15673;SDS011;7937;48.090;16.212;2022-12-31T22:21:45;0.40;;;0.30;;
15673;SDS011;7937;48.090;16.212;2022-12-31T22:24:47;0.40;;;0.40;;
15673;SDS011;7937;48.090;16.212;2022-12-31T22:27:49;0.47;;;0.47;;
15673;SDS011;7937;48.090;16.212;2022-12-31T22:31:12;1.57;;;0.53;;
15673;SDS011;7937;48.090;16.212;2022-12-31T22:34:16;0.50;;;0.50;;
15673;SDS011;7937;48.090;16.212;2022-12-31T22:37:19;0.90;;;0.60;;
15673;SDS011;7937;48.090;16.212;2022-12-31T22:40:41;1.53;;;0.47;;
15673;SDS011;7937;48.090;16.212;2022-12-31T22:43:44;0.50;;;0.40;;
15673;SDS011;7937;48.090;16.212;2022-12-31T22:46:48;0.33;;;0.33;;
15673;SDS011;7937;48.090;16.212;2022-12-31T22:49:50;0.73;;;0.40;;
15673;SDS011;7937;48.090;16.212;2022-12-31T22:52:52;1.40;;;0.57;;
15673;SDS011;7937;48.090;16.212;2022-12-31T22:55:54;4.67;;;0.73;;